sensor_id;sensor_type;location;lat;lon;timestamp;temperature;humidity
67974;DHT22;54756;51.140;6.952;2023-12-20T00:01:05;7.50;99.90
67974;DHT22;54756;51.140;6.952;2023-12-20T00:03:05;7.50;99.90
67974;DHT22;54756;51.140;6.952;2023-12-20T00:05:06;7.50;99.90
67974;DHT22;54756;51.140;6.952;2023-12-20T00:07:07;7.50;99.90
67974;DHT22;54756;51.140;6.952;2023-12-20T00:09:08;7.60;99.90
67974;DHT22;54756;51.140;6.952;2023-12-20T00:11:08;7.60;99.90
67974;DHT22;54756;51.140;6.952;2023-12-20T00:13:09;7.60;99.90
67974;DHT22;54756;51.140;6.952;2023-12-20T00:15:09;7.50;99.90
67974;DHT22;54756;51.140;6.952;2023-12-20T00:17:10;7.50;99.90
67974;DHT22;54756;51.140;6.952;2023-12-20T00:19:11;7.50;99.90
67974;DHT22;54756;51.140;6.952;2023-12-20T00:21:11;7.50;99.90
67974;DHT22;54756;51.140;6.952;2023-12-20T00:23:12;7.50;99.90
67974;DHT22;54756;51.140;6.952;2023-12-20T00:25:12;7.40;99.90
67974;DHT22;54756;51.140;6.952;2023-12-20T00:27:13;7.40;99.90
67974;DHT22;54756;51.140;6.952;2023-12-20T00:29:13;7.40;99.90
67974;DHT22;54756;51.140;6.952;2023-12-20T00:31:14;7.40;99.90
67974;DHT22;54756;51.140;6.952;2023-12-20T00:33:14;7.40;99.90
67974;DHT22;54756;51.140;6.952;2023-12-20T00:35:18;7.40;99.90
67974;DHT22;54756;51.140;6.952;2023-12-20T00:37:19;7.40;99.90
67974;DHT22;54756;51.140;6.952;2023-12-20T00:39:19;7.40;99.90
67974;DHT22;54756;51.140;6.952;2023-12-20T00:41:20;7.40;99.90
67974;DHT22;54756;51.140;6.952;2023-12-20T00:43:20;7.40;99.90
67974;DHT22;54756;51.140;6.952;2023-12-20T00:45:21;7.40;99.90
67974;DHT22;54756;51.140;6.952;2023-12-20T00:47:21;7.40;99.90
67974;DHT22;54756;51.140;6.952;2023-12-20T00:49:22;7.40;99.90
67974;DHT22;54756;51.140;6.952;2023-12-20T00:51:23;7.40;99.90
67974;DHT22;54756;51.140;6.952;2023-12-20T00:53:23;7.30;99.90
67974;DHT22;54756;51.140;6.952;2023-12-20T00:55:24;7.30;99.90
67974;DHT22;54756;51.140;6.952;2023-12-20T00:57:24;7.30;99.90
67974;DHT22;54756;51.140;6.952;2023-12-20T00:59:25;7.30;99.90
67974;DHT22;54756;51.140;6.952;2023-12-20T01:01:26;7.30;99.90
67974;DHT22;54756;51.140;6.952;2023-12-20T01:03:26;7.30;99.90
67974;DHT22;54756;51.140;6.952;2023-12-20T01:05:27;7.30;99.90
67974;DHT22;54756;51.140;6.952;2023-12-20T01:07:27;7.20;99.90
67974;DHT22;54756;51.140;6.952;2023-12-20T01:09:28;7.30;99.90
67974;DHT22;54756;51.140;6.952;2023-12-20T01:11:28;7.20;99.90
67974;DHT22;54756;51.140;6.952;2023-12-20T01:13:29;7.20;99.90
67974;DHT22;54756;51.140;6.952;2023-12-20T01:15:29;7.20;99.90
67974;DHT22;54756;51.140;6.952;2023-12-20T01:17:30;7.20;99.90
67974;DHT22;54756;51.140;6.952;2023-12-20T01:19:31;7.20;99.90
67974;DHT22;54756;51.140;6.952;2023-12-20T01:21:31;7.20;99.90
67974;DHT22;54756;51.140;6.952;2023-12-20T01:23:32;7.10;99.90
67974;DHT22;54756;51.140;6.952;2023-12-20T01:25:32;7.10;99.90
67974;DHT22;54756;51.140;6.952;2023-12-20T01:27:33;7.10;99.90
67974;DHT22;54756;51.140;6.952;2023-12-20T01:29:33;7.10;99.90
67974;DHT22;54756;51.140;6.952;2023-12-20T01:31:34;7.10;99.90
67974;DHT22;54756;51.140;6.952;2023-12-20T01:33:34;7.10;99.90
67974;DHT22;54756;51.140;6.952;2023-12-20T01:35:35;7.10;99.90
67974;DHT22;54756;51.140;6.952;2023-12-20T01:37:35;7.10;99.90
67974;DHT22;54756;51.140;6.952;2023-12-20T01:39:36;7.10;99.90
67974;DHT22;54756;51.140;6.952;2023-12-20T01:41:37;7.10;99.90
67974;DHT22;54756;51.140;6.952;2023-12-20T01:43:37;7.10;99.90
67974;DHT22;54756;51.140;6.952;2023-12-20T01:45:38;7.10;99.90
67974;DHT22;54756;51.140;6.952;2023-12-20T01:47:38;7.10;99.90
67974;DHT22;54756;51.140;6.952;2023-12-20T01:49:39;7.00;99.90
67974;DHT22;54756;51.140;6.952;2023-12-20T01:51:40;7.00;99.90
67974;DHT22;54756;51.140;6.952;2023-12-20T01:53:41;7.00;99.90
67974;DHT22;54756;51.140;6.952;2023-12-20T01:55:43;7.00;99.90
67974;DHT22;54756;51.140;6.952;2023-12-20T01:57:44;7.00;99.90
67974;DHT22;54756;51.140;6.952;2023-12-20T01:59:47;7.00;99.90
67974;DHT22;54756;51.140;6.952;2023-12-20T02:01:48;7.00;99.90
67974;DHT22;54756;51.140;6.952;2023-12-20T02:03:48;6.90;99.90
67974;DHT22;54756;51.140;6.952;2023-12-20T02:05:50;7.00;99.90
67974;DHT22;54756;51.140;6.952;2023-12-20T02:07:51;7.00;99.90
67974;DHT22;54756;51.140;6.952;2023-12-20T02:09:51;6.90;99.90
67974;DHT22;54756;51.140;6.952;2023-12-20T02:11:52;6.90;99.90
67974;DHT22;54756;51.140;6.952;2023-12-20T02:13:53;6.90;99.90
67974;DHT22;54756;51.140;6.952;2023-12-20T02:15:54;6.90;99.90
67974;DHT22;54756;51.140;6.952;2023-12-20T02:17:55;6.80;99.90
67974;DHT22;54756;51.140;6.952;2023-12-20T02:19:56;6.80;99.90
67974;DHT22;54756;51.140;6.952;2023-12-20T02:22:12;6.80;99.90
67974;DHT22;54756;51.140;6.952;2023-12-20T02:24:13;6.80;99.90
67974;DHT22;54756;51.140;6.952;2023-12-20T02:26:13;6.80;99.90
67974;DHT22;54756;51.140;6.952;2023-12-20T02:28:14;6.70;99.90
67974;DHT22;54756;51.140;6.952;2023-12-20T02:30:15;6.70;99.90
67974;DHT22;54756;51.140;6.952;2023-12-20T02:32:16;6.70;99.90
67974;DHT22;54756;51.140;6.952;2023-12-20T02:34:17;6.70;99.90
67974;DHT22;54756;51.140;6.952;2023-12-20T02:36:17;6.70;99.90
67974;DHT22;54756;51.140;6.952;2023-12-20T02:38:18;6.70;99.90
67974;DHT22;54756;51.140;6.952;2023-12-20T02:40:18;6.60;99.90
67974;DHT22;54756;51.140;6.952;2023-12-20T02:42:19;6.60;99.90
67974;DHT22;54756;51.140;6.952;2023-12-20T02:44:19;6.60;99.90
67974;DHT22;54756;51.140;6.952;2023-12-20T02:46:20;6.60;99.90
67974;DHT22;54756;51.140;6.952;2023-12-20T02:48:20;6.60;99.90
67974;DHT22;54756;51.140;6.952;2023-12-20T02:50:21;6.60;99.90
67974;DHT22;54756;51.140;6.952;2023-12-20T02:52:25;6.60;99.90
67974;DHT22;54756;51.140;6.952;2023-12-20T02:54:26;6.50;99.90
67974;DHT22;54756;51.140;6.952;2023-12-20T02:56:26;6.50;99.90
67974;DHT22;54756;51.140;6.952;2023-12-20T02:58:27;6.60;99.90
67974;DHT22;54756;51.140;6.952;2023-12-20T03:00:27;6.60;99.90
67974;DHT22;54756;51.140;6.952;2023-12-20T03:02:28;6.50;99.90
67974;DHT22;54756;51.140;6.952;2023-12-20T03:04:28;6.50;99.90
67974;DHT22;54756;51.140;6.952;2023-12-20T03:06:29;6.60;99.90
67974;DHT22;54756;51.140;6.952;2023-12-20T03:08:29;6.50;99.90
67974;DHT22;54756;51.140;6.952;2023-12-20T03:10:30;6.50;99.90
67974;DHT22;54756;51.140;6.952;2023-12-20T03:12:30;6.50;99.90
67974;DHT22;54756;51.140;6.952;2023-12-20T03:14:31;6.50;99.90
67974;DHT22;54756;51.140;6.952;2023-12-20T03:16:31;6.50;99.90
67974;DHT22;54756;51.140;6.952;2023-12-20T03:18:33;6.50;99.90
67974;DHT22;54756;51.140;6.952;2023-12-20T03:20:34;6.50;99.90
67974;DHT22;54756;51.140;6.952;2023-12-20T03:22:34;6.50;99.90
67974;DHT22;54756;51.140;6.952;2023-12-20T03:24:35;6.50;99.90
67974;DHT22;54756;51.140;6.952;2023-12-20T03:26:36;6.50;99.90
67974;DHT22;54756;51.140;6.952;2023-12-20T03:28:36;6.50;99.90
67974;DHT22;54756;51.140;6.952;2023-12-20T03:30:37;6.50;99.90
67974;DHT22;54756;51.140;6.952;2023-12-20T03:32:38;6.50;99.90
67974;DHT22;54756;51.140;6.952;2023-12-20T03:34:39;6.50;99.90
67974;DHT22;54756;51.140;6.952;2023-12-20T03:36:40;6.50;99.90
67974;DHT22;54756;51.140;6.952;2023-12-20T03:38:40;6.50;99.90
67974;DHT22;54756;51.140;6.952;2023-12-20T03:40:41;6.50;99.90
67974;DHT22;54756;51.140;6.952;2023-12-20T03:42:41;6.40;99.90
67974;DHT22;54756;51.140;6.952;2023-12-20T03:44:42;6.40;99.90
67974;DHT22;54756;51.140;6.952;2023-12-20T03:46:42;6.40;99.90
67974;DHT22;54756;51.140;6.952;2023-12-20T03:48:43;6.40;99.90
67974;DHT22;54756;51.140;6.952;2023-12-20T03:50:43;6.40;99.90
67974;DHT22;54756;51.140;6.952;2023-12-20T03:52:44;6.40;99.90
67974;DHT22;54756;51.140;6.952;2023-12-20T03:54:44;6.40;99.90
67974;DHT22;54756;51.140;6.952;2023-12-20T03:56:45;6.40;99.90
67974;DHT22;54756;51.140;6.952;2023-12-20T03:58:45;6.40;99.90
67974;DHT22;54756;51.140;6.952;2023-12-20T04:00:46;6.40;99.90
67974;DHT22;54756;51.140;6.952;2023-12-20T04:02:46;6.40;99.90
67974;DHT22;54756;51.140;6.952;2023-12-20T04:04:47;6.40;99.90
67974;DHT22;54756;51.140;6.952;2023-12-20T04:06:48;6.40;99.90
67974;DHT22;54756;51.140;6.952;2023-12-20T04:08:48;6.30;99.90
67974;DHT22;54756;51.140;6.952;2023-12-20T04:10:49;6.30;99.90
67974;DHT22;54756;51.140;6.952;2023-12-20T04:12:49;6.40;99.90
67974;DHT22;54756;51.140;6.952;2023-12-20T04:14:50;6.30;99.90
67974;DHT22;54756;51.140;6.952;2023-12-20T04:16:50;6.30;99.90
67974;DHT22;54756;51.140;6.952;2023-12-20T04:18:51;6.30;99.90
67974;DHT22;54756;51.140;6.952;2023-12-20T04:20:51;6.30;99.90
67974;DHT22;54756;51.140;6.952;2023-12-20T04:22:52;6.30;99.90
67974;DHT22;54756;51.140;6.952;2023-12-20T04:24:52;6.30;99.90
67974;DHT22;54756;51.140;6.952;2023-12-20T04:26:53;6.30;99.90
67974;DHT22;54756;51.140;6.952;2023-12-20T04:28:53;6.30;99.90
67974;DHT22;54756;51.140;6.952;2023-12-20T04:30:54;6.30;99.90
67974;DHT22;54756;51.140;6.952;2023-12-20T04:32:54;6.30;99.90
67974;DHT22;54756;51.140;6.952;2023-12-20T04:34:55;6.30;99.90
67974;DHT22;54756;51.140;6.952;2023-12-20T04:36:56;6.30;99.90
67974;DHT22;54756;51.140;6.952;2023-12-20T04:38:56;6.30;99.90
67974;DHT22;54756;51.140;6.952;2023-12-20T04:40:57;6.20;99.90
67974;DHT22;54756;51.140;6.952;2023-12-20T04:42:57;6.20;99.90
67974;DHT22;54756;51.140;6.952;2023-12-20T04:44:58;6.20;99.90
67974;DHT22;54756;51.140;6.952;2023-12-20T04:46:58;6.20;99.90
67974;DHT22;54756;51.140;6.952;2023-12-20T04:48:59;6.20;99.90
67974;DHT22;54756;51.140;6.952;2023-12-20T04:50:59;6.20;99.90
67974;DHT22;54756;51.140;6.952;2023-12-20T04:53:00;6.20;99.90
67974;DHT22;54756;51.140;6.952;2023-12-20T04:55:01;6.20;99.90
67974;DHT22;54756;51.140;6.952;2023-12-20T04:57:02;6.20;99.90
67974;DHT22;54756;51.140;6.952;2023-12-20T04:59:02;6.20;99.90
67974;DHT22;54756;51.140;6.952;2023-12-20T05:01:04;6.20;99.90
67974;DHT22;54756;51.140;6.952;2023-12-20T05:03:05;6.20;99.90
67974;DHT22;54756;51.140;6.952;2023-12-20T05:05:06;6.20;99.90
67974;DHT22;54756;51.140;6.952;2023-12-20T05:07:07;6.20;99.90
67974;DHT22;54756;51.140;6.952;2023-12-20T05:09:07;6.20;99.90
67974;DHT22;54756;51.140;6.952;2023-12-20T05:11:09;6.20;99.90
67974;DHT22;54756;51.140;6.952;2023-12-20T05:13:10;6.20;99.90
67974;DHT22;54756;51.140;6.952;2023-12-20T05:15:11;6.20;99.90
67974;DHT22;54756;51.140;6.952;2023-12-20T05:17:11;6.20;99.90
67974;DHT22;54756;51.140;6.952;2023-12-20T05:19:12;6.20;99.90
67974;DHT22;54756;51.140;6.952;2023-12-20T05:21:12;6.20;99.90
67974;DHT22;54756;51.140;6.952;2023-12-20T05:23:13;6.20;99.90
67974;DHT22;54756;51.140;6.952;2023-12-20T05:25:14;6.20;99.90
67974;DHT22;54756;51.140;6.952;2023-12-20T05:27:14;6.20;99.90
67974;DHT22;54756;51.140;6.952;2023-12-20T05:29:15;6.20;99.90
67974;DHT22;54756;51.140;6.952;2023-12-20T05:31:15;6.20;99.90
67974;DHT22;54756;51.140;6.952;2023-12-20T05:33:16;6.20;99.90
67974;DHT22;54756;51.140;6.952;2023-12-20T05:35:16;6.20;99.90
67974;DHT22;54756;51.140;6.952;2023-12-20T05:37:17;6.20;99.90
67974;DHT22;54756;51.140;6.952;2023-12-20T05:39:18;6.20;99.90
67974;DHT22;54756;51.140;6.952;2023-12-20T05:41:18;6.20;99.90
67974;DHT22;54756;51.140;6.952;2023-12-20T05:43:19;6.20;99.90
67974;DHT22;54756;51.140;6.952;2023-12-20T05:45:20;6.20;99.90
67974;DHT22;54756;51.140;6.952;2023-12-20T05:47:21;6.20;99.90
67974;DHT22;54756;51.140;6.952;2023-12-20T05:49:21;6.20;99.90
67974;DHT22;54756;51.140;6.952;2023-12-20T05:51:22;6.20;99.90
67974;DHT22;54756;51.140;6.952;2023-12-20T05:53:22;6.20;99.90
67974;DHT22;54756;51.140;6.952;2023-12-20T05:55:23;6.20;99.90
67974;DHT22;54756;51.140;6.952;2023-12-20T05:57:24;6.20;99.90
67974;DHT22;54756;51.140;6.952;2023-12-20T05:59:24;6.20;99.90
67974;DHT22;54756;51.140;6.952;2023-12-20T06:01:25;6.20;99.90
67974;DHT22;54756;51.140;6.952;2023-12-20T06:03:25;6.20;99.90
67974;DHT22;54756;51.140;6.952;2023-12-20T06:05:26;6.20;99.90
67974;DHT22;54756;51.140;6.952;2023-12-20T06:07:26;6.20;99.90
67974;DHT22;54756;51.140;6.952;2023-12-20T06:09:27;6.20;99.90
67974;DHT22;54756;51.140;6.952;2023-12-20T06:11:28;6.20;99.90
67974;DHT22;54756;51.140;6.952;2023-12-20T06:13:28;6.20;99.90
67974;DHT22;54756;51.140;6.952;2023-12-20T06:15:29;6.20;99.90
67974;DHT22;54756;51.140;6.952;2023-12-20T06:17:29;6.20;99.90
67974;DHT22;54756;51.140;6.952;2023-12-20T06:19:31;6.20;99.90
67974;DHT22;54756;51.140;6.952;2023-12-20T06:21:32;6.20;99.90
67974;DHT22;54756;51.140;6.952;2023-12-20T06:23:32;6.20;99.90
67974;DHT22;54756;51.140;6.952;2023-12-20T06:25:33;6.20;99.90
67974;DHT22;54756;51.140;6.952;2023-12-20T06:27:33;6.20;99.90
67974;DHT22;54756;51.140;6.952;2023-12-20T06:29:34;6.20;99.90
67974;DHT22;54756;51.140;6.952;2023-12-20T06:31:35;6.20;99.90
67974;DHT22;54756;51.140;6.952;2023-12-20T06:33:36;6.20;99.90
67974;DHT22;54756;51.140;6.952;2023-12-20T06:35:36;6.20;99.90
67974;DHT22;54756;51.140;6.952;2023-12-20T06:37:37;6.20;99.90
67974;DHT22;54756;51.140;6.952;2023-12-20T06:39:37;6.20;99.90
67974;DHT22;54756;51.140;6.952;2023-12-20T06:41:38;6.20;99.90
67974;DHT22;54756;51.140;6.952;2023-12-20T06:43:39;6.20;99.90
67974;DHT22;54756;51.140;6.952;2023-12-20T06:45:41;6.20;99.90
67974;DHT22;54756;51.140;6.952;2023-12-20T06:47:41;6.20;99.90
67974;DHT22;54756;51.140;6.952;2023-12-20T06:49:42;6.20;99.90
67974;DHT22;54756;51.140;6.952;2023-12-20T06:51:43;6.30;99.90
67974;DHT22;54756;51.140;6.952;2023-12-20T06:53:43;6.20;99.90
67974;DHT22;54756;51.140;6.952;2023-12-20T06:55:44;6.20;99.90
67974;DHT22;54756;51.140;6.952;2023-12-20T06:57:44;6.30;99.90
67974;DHT22;54756;51.140;6.952;2023-12-20T06:59:45;6.30;99.90
67974;DHT22;54756;51.140;6.952;2023-12-20T07:01:48;6.30;99.90
67974;DHT22;54756;51.140;6.952;2023-12-20T07:03:49;6.30;99.90
67974;DHT22;54756;51.140;6.952;2023-12-20T07:05:50;6.30;99.90
67974;DHT22;54756;51.140;6.952;2023-12-20T07:07:50;6.30;99.90
67974;DHT22;54756;51.140;6.952;2023-12-20T07:09:51;6.30;99.90
67974;DHT22;54756;51.140;6.952;2023-12-20T07:11:52;6.30;99.90
67974;DHT22;54756;51.140;6.952;2023-12-20T07:13:52;6.30;99.90
67974;DHT22;54756;51.140;6.952;2023-12-20T07:15:53;6.30;99.90
67974;DHT22;54756;51.140;6.952;2023-12-20T07:17:53;6.30;99.90
67974;DHT22;54756;51.140;6.952;2023-12-20T07:19:54;6.30;99.90
67974;DHT22;54756;51.140;6.952;2023-12-20T07:21:54;6.30;99.90
67974;DHT22;54756;51.140;6.952;2023-12-20T07:23:55;6.30;99.90
67974;DHT22;54756;51.140;6.952;2023-12-20T07:25:55;6.30;99.90
67974;DHT22;54756;51.140;6.952;2023-12-20T07:27:56;6.30;99.90
67974;DHT22;54756;51.140;6.952;2023-12-20T07:29:57;6.30;99.90
67974;DHT22;54756;51.140;6.952;2023-12-20T07:31:57;6.30;99.90
67974;DHT22;54756;51.140;6.952;2023-12-20T07:33:58;6.30;99.90
67974;DHT22;54756;51.140;6.952;2023-12-20T07:35:59;6.30;99.90
67974;DHT22;54756;51.140;6.952;2023-12-20T07:38:01;6.30;99.90
67974;DHT22;54756;51.140;6.952;2023-12-20T07:40:02;6.30;99.90
67974;DHT22;54756;51.140;6.952;2023-12-20T07:42:03;6.30;99.90
67974;DHT22;54756;51.140;6.952;2023-12-20T07:44:04;6.30;99.90
67974;DHT22;54756;51.140;6.952;2023-12-20T07:46:06;6.30;99.90
67974;DHT22;54756;51.140;6.952;2023-12-20T07:48:07;6.30;99.90
67974;DHT22;54756;51.140;6.952;2023-12-20T07:50:08;6.40;99.90
67974;DHT22;54756;51.140;6.952;2023-12-20T07:52:09;6.30;99.90
67974;DHT22;54756;51.140;6.952;2023-12-20T07:54:09;6.40;99.90
67974;DHT22;54756;51.140;6.952;2023-12-20T07:56:22;6.40;99.90
67974;DHT22;54756;51.140;6.952;2023-12-20T07:58:23;6.30;99.90
67974;DHT22;54756;51.140;6.952;2023-12-20T08:00:23;6.40;99.90
67974;DHT22;54756;51.140;6.952;2023-12-20T08:02:24;6.40;99.90
67974;DHT22;54756;51.140;6.952;2023-12-20T08:04:24;6.40;99.90
67974;DHT22;54756;51.140;6.952;2023-12-20T08:06:25;6.40;99.90
67974;DHT22;54756;51.140;6.952;2023-12-20T08:08:25;6.40;99.90
67974;DHT22;54756;51.140;6.952;2023-12-20T08:10:26;6.40;99.90
67974;DHT22;54756;51.140;6.952;2023-12-20T08:12:29;6.40;99.90
67974;DHT22;54756;51.140;6.952;2023-12-20T08:14:30;6.40;99.90
67974;DHT22;54756;51.140;6.952;2023-12-20T08:16:31;6.40;99.90
67974;DHT22;54756;51.140;6.952;2023-12-20T08:18:32;6.40;99.90
67974;DHT22;54756;51.140;6.952;2023-12-20T08:20:32;6.40;99.90
67974;DHT22;54756;51.140;6.952;2023-12-20T08:22:33;6.40;99.90
67974;DHT22;54756;51.140;6.952;2023-12-20T08:24:33;6.30;99.90
67974;DHT22;54756;51.140;6.952;2023-12-20T08:26:34;6.40;99.90
67974;DHT22;54756;51.140;6.952;2023-12-20T08:28:36;6.30;99.90
67974;DHT22;54756;51.140;6.952;2023-12-20T08:30:37;6.40;99.90
67974;DHT22;54756;51.140;6.952;2023-12-20T08:32:37;6.40;99.90
67974;DHT22;54756;51.140;6.952;2023-12-20T08:34:38;6.30;99.90
67974;DHT22;54756;51.140;6.952;2023-12-20T08:36:39;6.40;99.90
67974;DHT22;54756;51.140;6.952;2023-12-20T08:38:39;6.30;99.90
67974;DHT22;54756;51.140;6.952;2023-12-20T08:40:40;6.40;99.90
67974;DHT22;54756;51.140;6.952;2023-12-20T08:42:41;6.40;99.90
67974;DHT22;54756;51.140;6.952;2023-12-20T08:44:42;6.30;99.90
67974;DHT22;54756;51.140;6.952;2023-12-20T08:46:43;6.40;99.90
67974;DHT22;54756;51.140;6.952;2023-12-20T08:48:43;6.30;99.90
67974;DHT22;54756;51.140;6.952;2023-12-20T08:50:44;6.40;99.90
67974;DHT22;54756;51.140;6.952;2023-12-20T08:52:44;6.40;99.90
67974;DHT22;54756;51.140;6.952;2023-12-20T08:54:45;6.30;99.90
67974;DHT22;54756;51.140;6.952;2023-12-20T08:56:45;6.30;99.90
67974;DHT22;54756;51.140;6.952;2023-12-20T08:58:47;6.30;99.90
67974;DHT22;54756;51.140;6.952;2023-12-20T09:00:47;6.40;99.90
67974;DHT22;54756;51.140;6.952;2023-12-20T09:02:48;6.30;99.90
67974;DHT22;54756;51.140;6.952;2023-12-20T09:04:48;6.30;99.90
67974;DHT22;54756;51.140;6.952;2023-12-20T09:06:49;6.40;99.90
67974;DHT22;54756;51.140;6.952;2023-12-20T09:08:50;6.40;99.90
67974;DHT22;54756;51.140;6.952;2023-12-20T09:10:50;6.40;99.90
67974;DHT22;54756;51.140;6.952;2023-12-20T09:12:52;6.40;99.90
67974;DHT22;54756;51.140;6.952;2023-12-20T09:14:56;6.40;99.90
67974;DHT22;54756;51.140;6.952;2023-12-20T09:16:57;6.40;99.90
67974;DHT22;54756;51.140;6.952;2023-12-20T09:18:57;6.40;99.90
67974;DHT22;54756;51.140;6.952;2023-12-20T09:20:58;6.40;99.90
67974;DHT22;54756;51.140;6.952;2023-12-20T09:22:58;6.40;99.90
67974;DHT22;54756;51.140;6.952;2023-12-20T09:24:59;6.40;99.90
67974;DHT22;54756;51.140;6.952;2023-12-20T09:27:00;6.40;99.90
67974;DHT22;54756;51.140;6.952;2023-12-20T09:29:01;6.40;99.90
67974;DHT22;54756;51.140;6.952;2023-12-20T09:31:02;6.40;99.90
67974;DHT22;54756;51.140;6.952;2023-12-20T09:33:04;6.40;99.90
67974;DHT22;54756;51.140;6.952;2023-12-20T09:35:05;6.40;99.90
67974;DHT22;54756;51.140;6.952;2023-12-20T09:37:07;6.40;99.90
67974;DHT22;54756;51.140;6.952;2023-12-20T09:39:08;6.40;99.90
67974;DHT22;54756;51.140;6.952;2023-12-20T09:41:08;6.40;99.90
67974;DHT22;54756;51.140;6.952;2023-12-20T09:43:11;6.40;99.90
67974;DHT22;54756;51.140;6.952;2023-12-20T09:45:15;6.40;99.90
67974;DHT22;54756;51.140;6.952;2023-12-20T09:47:19;6.40;99.90
67974;DHT22;54756;51.140;6.952;2023-12-20T09:49:21;6.40;99.90
67974;DHT22;54756;51.140;6.952;2023-12-20T09:51:22;6.40;99.90
67974;DHT22;54756;51.140;6.952;2023-12-20T09:53:25;6.40;99.90
67974;DHT22;54756;51.140;6.952;2023-12-20T09:55:30;6.40;99.90
67974;DHT22;54756;51.140;6.952;2023-12-20T09:57:33;6.40;99.90
67974;DHT22;54756;51.140;6.952;2023-12-20T09:59:33;6.40;99.90
67974;DHT22;54756;51.140;6.952;2023-12-20T10:01:35;6.50;99.90
67974;DHT22;54756;51.140;6.952;2023-12-20T10:03:39;6.50;99.90
67974;DHT22;54756;51.140;6.952;2023-12-20T10:05:43;6.40;99.90
67974;DHT22;54756;51.140;6.952;2023-12-20T10:07:43;6.50;99.90
67974;DHT22;54756;51.140;6.952;2023-12-20T10:09:44;6.50;99.90
67974;DHT22;54756;51.140;6.952;2023-12-20T10:11:44;6.50;99.90
67974;DHT22;54756;51.140;6.952;2023-12-20T10:13:47;6.50;99.90
67974;DHT22;54756;51.140;6.952;2023-12-20T10:15:49;6.50;99.90
67974;DHT22;54756;51.140;6.952;2023-12-20T10:17:50;6.50;99.90
67974;DHT22;54756;51.140;6.952;2023-12-20T10:19:51;6.50;99.90
67974;DHT22;54756;51.140;6.952;2023-12-20T10:21:52;6.50;99.90
67974;DHT22;54756;51.140;6.952;2023-12-20T10:23:56;6.50;99.90
67974;DHT22;54756;51.140;6.952;2023-12-20T10:26:00;6.60;99.90
67974;DHT22;54756;51.140;6.952;2023-12-20T10:28:16;6.50;99.90
67974;DHT22;54756;51.140;6.952;2023-12-20T10:30:23;6.60;99.90
67974;DHT22;54756;51.140;6.952;2023-12-20T10:32:26;6.50;99.90
67974;DHT22;54756;51.140;6.952;2023-12-20T10:34:27;6.50;99.90
67974;DHT22;54756;51.140;6.952;2023-12-20T10:36:30;6.60;99.90
67974;DHT22;54756;51.140;6.952;2023-12-20T10:38:31;6.60;99.90
67974;DHT22;54756;51.140;6.952;2023-12-20T10:40:36;6.50;99.90
67974;DHT22;54756;51.140;6.952;2023-12-20T10:42:37;6.60;99.90
67974;DHT22;54756;51.140;6.952;2023-12-20T10:44:38;6.50;99.90
67974;DHT22;54756;51.140;6.952;2023-12-20T10:46:40;6.60;99.90
67974;DHT22;54756;51.140;6.952;2023-12-20T10:48:41;6.50;99.90
67974;DHT22;54756;51.140;6.952;2023-12-20T10:50:43;6.60;99.90
67974;DHT22;54756;51.140;6.952;2023-12-20T10:52:44;6.60;99.90
67974;DHT22;54756;51.140;6.952;2023-12-20T10:54:45;6.60;99.90
67974;DHT22;54756;51.140;6.952;2023-12-20T10:56:47;6.60;99.90
67974;DHT22;54756;51.140;6.952;2023-12-20T10:58:49;6.60;99.90
67974;DHT22;54756;51.140;6.952;2023-12-20T11:00:52;6.60;99.90
67974;DHT22;54756;51.140;6.952;2023-12-20T11:03:00;6.60;99.90
67974;DHT22;54756;51.140;6.952;2023-12-20T11:07:36;6.60;99.90
67974;DHT22;54756;51.140;6.952;2023-12-20T11:09:43;6.60;99.90
67974;DHT22;54756;51.140;6.952;2023-12-20T11:12:03;6.60;99.90
67974;DHT22;54756;51.140;6.952;2023-12-20T11:14:08;6.70;99.90
67974;DHT22;54756;51.140;6.952;2023-12-20T11:16:11;6.70;99.90
67974;DHT22;54756;51.140;6.952;2023-12-20T11:18:12;6.70;99.90
67974;DHT22;54756;51.140;6.952;2023-12-20T11:20:12;6.70;99.90
67974;DHT22;54756;51.140;6.952;2023-12-20T11:22:14;6.60;99.90
67974;DHT22;54756;51.140;6.952;2023-12-20T11:24:16;6.70;99.90
67974;DHT22;54756;51.140;6.952;2023-12-20T11:26:16;6.70;99.90
67974;DHT22;54756;51.140;6.952;2023-12-20T11:28:24;6.70;99.90
67974;DHT22;54756;51.140;6.952;2023-12-20T11:30:25;6.70;99.90
67974;DHT22;54756;51.140;6.952;2023-12-20T11:34:28;6.70;99.90
67974;DHT22;54756;51.140;6.952;2023-12-20T11:36:32;6.70;99.90
67974;DHT22;54756;51.140;6.952;2023-12-20T11:38:36;6.70;99.90
67974;DHT22;54756;51.140;6.952;2023-12-20T11:40:37;6.70;99.90
67974;DHT22;54756;51.140;6.952;2023-12-20T11:42:39;6.70;99.90
67974;DHT22;54756;51.140;6.952;2023-12-20T11:44:42;6.70;99.90
67974;DHT22;54756;51.140;6.952;2023-12-20T11:46:44;6.70;99.90
67974;DHT22;54756;51.140;6.952;2023-12-20T11:48:44;6.70;99.90
67974;DHT22;54756;51.140;6.952;2023-12-20T11:50:45;6.70;99.90
67974;DHT22;54756;51.140;6.952;2023-12-20T11:52:47;6.70;99.90
67974;DHT22;54756;51.140;6.952;2023-12-20T11:54:47;6.70;99.90
67974;DHT22;54756;51.140;6.952;2023-12-20T11:56:48;6.70;99.90
67974;DHT22;54756;51.140;6.952;2023-12-20T11:58:49;6.70;99.90
67974;DHT22;54756;51.140;6.952;2023-12-20T12:00:50;6.70;99.90
67974;DHT22;54756;51.140;6.952;2023-12-20T12:02:58;6.70;99.90
67974;DHT22;54756;51.140;6.952;2023-12-20T12:05:02;6.70;99.90
67974;DHT22;54756;51.140;6.952;2023-12-20T12:07:05;6.70;99.90
67974;DHT22;54756;51.140;6.952;2023-12-20T12:09:05;6.70;99.90
67974;DHT22;54756;51.140;6.952;2023-12-20T12:11:06;6.70;99.90
67974;DHT22;54756;51.140;6.952;2023-12-20T12:13:07;6.70;99.90
67974;DHT22;54756;51.140;6.952;2023-12-20T12:15:08;6.70;99.90
67974;DHT22;54756;51.140;6.952;2023-12-20T12:17:13;6.70;99.90
67974;DHT22;54756;51.140;6.952;2023-12-20T12:19:22;6.70;99.90
67974;DHT22;54756;51.140;6.952;2023-12-20T12:21:22;6.70;99.90
67974;DHT22;54756;51.140;6.952;2023-12-20T12:23:23;6.70;99.90
67974;DHT22;54756;51.140;6.952;2023-12-20T12:25:24;6.80;99.90
67974;DHT22;54756;51.140;6.952;2023-12-20T12:27:25;6.70;99.90
67974;DHT22;54756;51.140;6.952;2023-12-20T12:29:26;6.80;99.90
67974;DHT22;54756;51.140;6.952;2023-12-20T12:31:26;6.80;99.90
67974;DHT22;54756;51.140;6.952;2023-12-20T12:33:27;6.80;99.90
67974;DHT22;54756;51.140;6.952;2023-12-20T12:35:28;6.80;99.90
67974;DHT22;54756;51.140;6.952;2023-12-20T12:37:29;6.80;99.90
67974;DHT22;54756;51.140;6.952;2023-12-20T12:39:29;6.80;99.90
67974;DHT22;54756;51.140;6.952;2023-12-20T12:41:30;6.80;99.90
67974;DHT22;54756;51.140;6.952;2023-12-20T12:43:31;6.80;99.90
67974;DHT22;54756;51.140;6.952;2023-12-20T12:45:31;6.80;99.90
67974;DHT22;54756;51.140;6.952;2023-12-20T12:47:33;6.80;99.90
67974;DHT22;54756;51.140;6.952;2023-12-20T12:49:34;6.80;99.90
67974;DHT22;54756;51.140;6.952;2023-12-20T12:51:34;6.80;99.90
67974;DHT22;54756;51.140;6.952;2023-12-20T12:53:35;6.80;99.90
67974;DHT22;54756;51.140;6.952;2023-12-20T12:55:35;6.90;99.90
67974;DHT22;54756;51.140;6.952;2023-12-20T12:57:36;6.80;99.90
67974;DHT22;54756;51.140;6.952;2023-12-20T12:59:37;6.80;99.90
67974;DHT22;54756;51.140;6.952;2023-12-20T13:01:37;6.80;99.90